Time;durP1;ratioP1;P1;durP2;ratioP2;P2;SDS_P1;SDS_P2;PMS_P1;PMS_P2;Temp;Humidity;BMP_temperature;BMP_pressure;BME280_temperature;BME280_humidity;BME280_pressure;Samples;Min_cycle;Max_cycle;Signal;HPM_P1;HPM_P2
2023/05/23 00:01:38;;;;;;;20.75;11.32;;;14.90;99.90;;;;;;5017941;28;20037;-70
2023/05/23 00:04:04;;;;;;;19.88;12.05;;;14.90;99.90;;;;;;5017954;28;20064;-70
2023/05/23 00:06:30;;;;;;;20.90;11.15;;;14.90;99.90;;;;;;5017326;28;20108;-70
2023/05/23 00:08:56;;;;;;;22.27;11.70;;;14.90;99.90;;;;;;5017625;28;20054;-70
2023/05/23 00:11:25;;;;;;;20.58;11.70;;;14.90;99.90;;;;;;5016048;28;20050;-70
2023/05/23 00:14:01;;;;;;;21.45;11.43;;;14.80;99.90;;;;;;5017838;28;20049;-70
2023/05/23 00:16:27;;;;;;;21.25;12.65;;;14.80;99.90;;;;;;5017818;28;20042;-70
2023/05/23 00:18:56;;;;;;;2.55;1.05;;;14.80;99.90;;;;;;5017669;28;20103;-70
2023/05/23 00:21:22;;;;;;;22.92;11.50;;;14.70;99.90;;;;;;5017020;28;20049;-70
2023/05/23 00:23:49;;;;;;;22.83;11.52;;;14.60;99.90;;;;;;5017657;28;20046;-70
2023/05/23 00:26:14;;;;;;;25.55;13.15;;;14.50;99.90;;;;;;5016326;28;20057;-70
2023/05/23 00:28:40;;;;;;;17.48;10.98;;;14.50;99.90;;;;;;5017302;28;20058;-70
2023/05/23 00:31:06;;;;;;;19.40;10.27;;;14.50;99.90;;;;;;5017219;28;20054;-70
2023/05/23 00:33:33;;;;;;;20.40;11.48;;;14.50;99.90;;;;;;5017121;28;20053;-70
2023/05/23 00:35:59;;;;;;;19.98;11.32;;;14.40;99.90;;;;;;5017358;28;20046;-71
2023/05/23 00:38:25;;;;;;;17.90;10.30;;;14.40;99.90;;;;;;5016827;28;20046;-70
2023/05/23 00:40:51;;;;;;;20.80;11.45;;;14.40;99.90;;;;;;5016648;28;20046;-71
2023/05/23 00:43:18;;;;;;;20.38;10.35;;;14.30;99.90;;;;;;5016710;28;20053;-71
2023/05/23 00:45:44;;;;;;;18.90;11.15;;;14.30;99.90;;;;;;5015694;28;20133;-71
2023/05/23 00:48:10;;;;;;;17.13;11.18;;;14.30;99.90;;;;;;5015721;28;20128;-71
2023/05/23 00:50:36;;;;;;;18.13;10.40;;;14.30;99.90;;;;;;5016838;28;20056;-71
2023/05/23 00:53:02;;;;;;;17.70;10.05;;;14.30;99.90;;;;;;5017009;28;20045;-71
2023/05/23 00:55:29;;;;;;;16.67;10.57;;;14.30;99.90;;;;;;5017039;28;20081;-72
2023/05/23 00:57:56;;;;;;;16.98;9.68;;;14.30;99.90;;;;;;5016149;28;20490;-71
2023/05/23 01:00:25;;;;;;;19.27;10.40;;;14.20;99.90;;;;;;5016312;28;20499;-72
2023/05/23 01:02:52;;;;;;;17.23;10.20;;;14.30;99.90;;;;;;5016384;28;20046;-72
2023/05/23 01:05:18;;;;;;;14.73;9.18;;;14.30;99.90;;;;;;5016316;28;20130;-73
2023/05/23 01:07:48;;;;;;;17.88;9.60;;;14.20;99.90;;;;;;5016038;28;20093;-72
2023/05/23 01:10:23;;;;;;;16.98;9.75;;;14.20;99.90;;;;;;5016221;28;20049;-73
2023/05/23 01:13:00;;;;;;;13.93;9.85;;;14.10;99.90;;;;;;5016263;28;20052;-72
2023/05/23 01:16:04;;;;;;;14.32;9.50;;;14.20;99.90;;;;;;5017005;28;20105;-72
2023/05/23 01:18:42;;;;;;;13.13;9.25;;;14.20;99.90;;;;;;5015940;28;20085;-72
2023/05/23 01:21:18;;;;;;;15.32;9.57;;;14.20;99.90;;;;;;5016536;28;20050;-72
2023/05/23 01:24:06;;;;;;;16.33;9.02;;;14.10;99.90;;;;;;5015979;28;20046;-72
2023/05/23 01:26:59;;;;;;;12.18;8.40;;;14.10;99.90;;;;;;5015943;28;20081;-72
2023/05/23 01:29:33;;;;;;;12.63;8.05;;;14.10;99.90;;;;;;5015986;28;20045;-72
2023/05/23 01:32:00;;;;;;;11.35;8.18;;;14.20;99.90;;;;;;5015910;28;20049;-71
2023/05/23 01:34:27;;;;;;;11.32;7.78;;;14.20;99.90;;;;;;5015777;28;20133;-72
2023/05/23 01:36:56;;;;;;;12.85;8.43;;;14.20;99.90;;;;;;5014966;28;20493;-71
2023/05/23 01:39:22;;;;;;;11.95;8.45;;;14.20;99.90;;;;;;5017932;28;20490;-72
2023/05/23 01:41:50;;;;;;;11.65;7.78;;;14.20;99.90;;;;;;5017859;28;20038;-72
2023/05/23 01:44:16;;;;;;;11.38;7.63;;;14.20;99.90;;;;;;5016452;28;20400;-71
2023/05/23 01:46:43;;;;;;;11.30;7.53;;;14.30;99.90;;;;;;5015565;28;20060;-72
2023/05/23 01:49:12;;;;;;;10.88;7.53;;;14.30;99.90;;;;;;5015539;28;20049;-72
2023/05/23 01:51:39;;;;;;;12.90;7.95;;;14.30;99.90;;;;;;5015475;28;20053;-71
2023/05/23 01:54:05;;;;;;;14.63;8.30;;;14.30;99.90;;;;;;5015395;28;20053;-71
2023/05/23 01:56:32;;;;;;;14.63;9.77;;;14.30;99.90;;;;;;5015396;28;20390;-71
2023/05/23 01:58:57;;;;;;;14.35;9.70;;;14.20;99.90;;;;;;5015839;28;20054;-71
2023/05/23 02:01:23;;;;;;;13.00;9.85;;;14.20;99.90;;;;;;5015758;28;20466;-71
2023/05/23 02:03:50;;;;;;;15.52;9.63;;;14.20;99.90;;;;;;5015239;28;20443;-71
2023/05/23 02:06:15;;;;;;;15.23;10.07;;;14.20;99.90;;;;;;5015134;28;20061;-71
2023/05/23 02:08:41;;;;;;;16.27;10.57;;;14.20;99.90;;;;;;5015446;28;20050;-71
2023/05/23 02:11:07;;;;;;;13.55;10.00;;;14.10;99.90;;;;;;5015613;28;20046;-71
2023/05/23 02:13:34;;;;;;;16.65;9.85;;;14.10;99.90;;;;;;5015338;28;20048;-72
2023/05/23 02:15:59;;;;;;;15.93;9.65;;;14.10;99.90;;;;;;5013766;28;20141;-71
2023/05/23 02:18:28;;;;;;;13.88;9.10;;;14.00;99.90;;;;;;5014001;28;20050;-72
2023/05/23 02:20:55;;;;;;;10.98;7.95;;;14.00;99.90;;;;;;5014473;28;20590;-70
2023/05/23 02:23:21;;;;;;;9.15;7.18;;;14.00;99.90;;;;;;5014868;28;20057;-71
2023/05/23 02:25:47;;;;;;;13.57;8.18;;;13.90;99.90;;;;;;5014788;28;20050;-71
2023/05/23 02:28:13;;;;;;;11.68;7.57;;;13.90;99.90;;;;;;5014724;28;20049;-71
2023/05/23 02:30:39;;;;;;;12.32;7.60;;;13.90;99.90;;;;;;5015005;28;20060;-71
2023/05/23 02:33:06;;;;;;;9.48;7.25;;;13.90;99.90;;;;;;5014595;28;20041;-71
2023/05/23 02:35:33;;;;;;;13.27;8.10;;;13.90;99.90;;;;;;5014577;28;20050;-71
2023/05/23 02:37:59;;;;;;;10.82;6.75;;;13.90;99.90;;;;;;5013920;28;20046;-71
2023/05/23 02:40:25;;;;;;;15.00;8.00;;;13.80;99.90;;;;;;5014603;28;20061;-71
2023/05/23 02:42:50;;;;;;;10.40;7.10;;;13.90;99.90;;;;;;5015100;28;20491;-71
2023/05/23 02:45:17;;;;;;;9.80;6.50;;;13.90;99.90;;;;;;5015078;28;20370;-72
2023/05/23 02:47:43;;;;;;;11.05;6.40;;;13.80;99.90;;;;;;5014446;28;20045;-71
2023/05/23 02:50:09;;;;;;;10.18;6.28;;;13.80;99.90;;;;;;5014906;28;20045;-71
2023/05/23 02:52:35;;;;;;;10.13;6.15;;;13.80;99.90;;;;;;5014899;28;20112;-72
2023/05/23 02:55:00;;;;;;;14.23;6.07;;;13.80;99.90;;;;;;5014158;28;20050;-71
2023/05/23 02:57:26;;;;;;;12.48;6.63;;;13.70;99.90;;;;;;5014957;28;20093;-71
2023/05/23 02:59:52;;;;;;;10.38;6.07;;;13.70;99.90;;;;;;5014253;28;20054;-71
2023/05/23 03:02:18;;;;;;;12.10;5.75;;;13.70;99.90;;;;;;5014669;28;20048;-71
2023/05/23 03:04:43;;;;;;;10.07;5.85;;;13.60;99.90;;;;;;5014800;28;20368;-71
2023/05/23 03:07:11;;;;;;;10.30;5.88;;;13.60;99.90;;;;;;5014120;28;20046;-71
2023/05/23 03:09:36;;;;;;;12.20;5.47;;;13.50;99.90;;;;;;5013929;28;20050;-71
2023/05/23 03:12:03;;;;;;;14.15;6.65;;;13.50;99.90;;;;;;5013536;28;20049;-71
2023/05/23 03:14:28;;;;;;;11.20;5.82;;;13.50;99.90;;;;;;5014553;28;20107;-71
2023/05/23 03:16:54;;;;;;;15.73;7.00;;;13.40;99.90;;;;;;5012833;28;20449;-72
2023/05/23 03:19:20;;;;;;;11.00;5.20;;;13.40;99.90;;;;;;5014743;28;20426;-71
2023/05/23 03:21:45;;;;;;;9.20;5.78;;;13.40;99.90;;;;;;5013843;28;20376;-71
2023/05/23 03:24:11;;;;;;;9.57;5.60;;;13.40;99.90;;;;;;5014730;28;20046;-71
2023/05/23 03:26:37;;;;;;;12.00;5.47;;;13.40;99.90;;;;;;5014192;28;20168;-71
2023/05/23 03:29:02;;;;;;;10.82;5.03;;;13.40;99.90;;;;;;5013869;28;20041;-71
2023/05/23 03:31:28;;;;;;;8.85;4.38;;;13.40;99.90;;;;;;5014117;28;20056;-71
2023/05/23 03:33:54;;;;;;;6.47;3.55;;;13.30;99.90;;;;;;5014152;28;20050;-71
2023/05/23 03:36:20;;;;;;;8.68;4.00;;;13.30;99.90;;;;;;5013036;28;20467;-71
2023/05/23 03:38:46;;;;;;;7.78;3.97;;;13.30;99.90;;;;;;5013838;28;20054;-71
2023/05/23 03:41:12;;;;;;;5.38;3.05;;;13.30;99.90;;;;;;5013705;28;20537;-71
2023/05/23 03:43:37;;;;;;;5.68;3.08;;;13.30;99.90;;;;;;5013635;28;20038;-71
2023/05/23 03:46:03;;;;;;;5.72;3.00;;;13.20;99.90;;;;;;5014518;28;20103;-71
2023/05/23 03:48:29;;;;;;;3.92;2.53;;;13.20;99.90;;;;;;5013359;28;20042;-71
2023/05/23 03:50:55;;;;;;;4.93;2.72;;;13.10;99.90;;;;;;5012708;28;20490;-71
2023/05/23 03:53:20;;;;;;;5.20;2.80;;;13.00;99.90;;;;;;5012437;28;20050;-71
2023/05/23 03:55:46;;;;;;;5.75;2.70;;;13.00;99.90;;;;;;5013606;28;20048;-71
2023/05/23 03:58:12;;;;;;;7.03;3.67;;;12.90;99.90;;;;;;5012412;28;20057;-71
2023/05/23 04:00:37;;;;;;;8.00;4.10;;;12.90;99.90;;;;;;5013510;28;20128;-71
2023/05/23 04:03:03;;;;;;;11.23;4.80;;;12.80;99.90;;;;;;5013511;28;20415;-71
2023/05/23 04:05:29;;;;;;;10.63;4.45;;;12.80;99.90;;;;;;5013488;28;20041;-71
2023/05/23 04:07:55;;;;;;;10.13;5.00;;;12.70;99.90;;;;;;5012737;28;20053;-71
2023/05/23 04:10:21;;;;;;;11.80;5.30;;;12.70;99.90;;;;;;5013467;28;20046;-73
2023/05/23 04:12:47;;;;;;;11.43;5.40;;;12.70;99.90;;;;;;5013508;28;20060;-71
2023/05/23 04:15:13;;;;;;;9.00;4.30;;;12.70;99.90;;;;;;5012747;28;20096;-71
2023/05/23 04:17:38;;;;;;;11.10;5.13;;;12.60;99.90;;;;;;5013968;28;20124;-71
2023/05/23 04:20:11;;;;;;;8.00;4.60;;;12.60;99.90;;;;;;5013422;28;20081;-71
2023/05/23 04:22:37;;;;;;;13.88;4.88;;;12.60;99.90;;;;;;5013856;28;20057;-72
2023/05/23 04:25:03;;;;;;;12.70;5.32;;;12.60;99.90;;;;;;5016990;28;20049;-71
2023/05/23 04:27:29;;;;;;;10.85;5.40;;;12.60;99.90;;;;;;5015330;28;20049;-71
2023/05/23 04:29:57;;;;;;;12.02;4.85;;;12.60;99.90;;;;;;5016350;28;20058;-70
2023/05/23 04:32:23;;;;;;;11.00;5.07;;;12.60;99.90;;;;;;5016665;28;20108;-71
2023/05/23 04:34:48;;;;;;;9.80;4.85;;;12.60;99.90;;;;;;5017374;28;20112;-71
2023/05/23 04:37:16;;;;;;;11.48;4.35;;;12.60;99.90;;;;;;5016632;28;20398;-71
2023/05/23 04:39:41;;;;;;;8.90;4.15;;;12.60;99.90;;;;;;5015555;28;20145;-71
2023/05/23 04:42:07;;;;;;;9.27;4.78;;;12.60;99.90;;;;;;5015441;28;20132;-71
2023/05/23 04:44:36;;;;;;;8.05;4.30;;;12.50;99.90;;;;;;5016520;28;20054;-71
2023/05/23 04:47:02;;;;;;;6.53;3.80;;;12.50;99.90;;;;;;5016354;28;20391;-71
2023/05/23 04:49:28;;;;;;;6.60;3.80;;;12.50;99.90;;;;;;5017045;28;20042;-71
2023/05/23 04:51:53;;;;;;;7.90;4.07;;;12.50;99.90;;;;;;5016425;28;20445;-70
2023/05/23 04:54:20;;;;;;;9.30;3.85;;;12.50;99.90;;;;;;5016909;28;20101;-71
2023/05/23 04:56:46;;;;;;;11.05;3.85;;;12.50;99.90;;;;;;5016544;28;20061;-71
2023/05/23 04:59:12;;;;;;;8.80;3.85;;;12.40;99.90;;;;;;5016329;28;20045;-71
2023/05/23 05:01:40;;;;;;;6.22;3.30;;;12.40;99.90;;;;;;5016839;28;20046;-71
2023/05/23 05:04:06;;;;;;;9.18;3.70;;;12.40;99.90;;;;;;5016312;28;20049;-71
2023/05/23 05:06:32;;;;;;;8.23;3.95;;;12.40;99.90;;;;;;5016508;28;20046;-71
2023/05/23 05:08:58;;;;;;;7.18;3.55;;;12.40;99.90;;;;;;5016254;28;20068;-71
2023/05/23 05:11:25;;;;;;;9.15;3.92;;;12.40;99.90;;;;;;5016194;28;20117;-71
2023/05/23 05:13:51;;;;;;;8.60;3.58;;;12.30;99.90;;;;;;5016172;28;20125;-71
2023/05/23 05:16:17;;;;;;;8.52;3.60;;;12.40;99.90;;;;;;5016587;28;20184;-72
2023/05/23 05:18:43;;;;;;;8.98;3.80;;;12.40;99.90;;;;;;5016105;28;20037;-71
2023/05/23 05:21:08;;;;;;;7.28;3.55;;;12.30;99.90;;;;;;5016746;28;20108;-71
2023/05/23 05:23:35;;;;;;;7.55;3.20;;;12.30;99.90;;;;;;5016003;28;20414;-71
2023/05/23 05:26:02;;;;;;;7.97;3.10;;;12.30;99.90;;;;;;5016239;28;20096;-71
2023/05/23 05:28:27;;;;;;;8.50;3.42;;;12.20;99.90;;;;;;5015866;28;20399;-70
2023/05/23 05:30:53;;;;;;;6.90;3.45;;;12.30;99.90;;;;;;5015674;28;20094;-71
2023/05/23 05:33:22;;;;;;;8.23;3.40;;;12.30;99.90;;;;;;5015279;28;20340;-71
2023/05/23 05:35:50;;;;;;;7.63;3.20;;;12.30;99.90;;;;;;5015545;28;20045;-70
2023/05/23 05:38:16;;;;;;;8.20;3.60;;;12.30;99.90;;;;;;5015678;28;20050;-70
2023/05/23 05:40:42;;;;;;;9.57;2.95;;;12.30;99.90;;;;;;5015306;28;20486;-71
2023/05/23 05:43:09;;;;;;;9.90;3.42;;;12.30;99.90;;;;;;5015663;28;20129;-71
2023/05/23 05:45:35;;;;;;;8.25;3.00;;;12.30;99.90;;;;;;5015517;28;20060;-71
2023/05/23 05:48:00;;;;;;;7.85;3.05;;;12.30;99.90;;;;;;5016252;28;20057;-71
2023/05/23 05:50:26;;;;;;;7.68;3.35;;;12.20;99.90;;;;;;5015531;28;20475;-71
2023/05/23 05:52:52;;;;;;;8.85;3.70;;;12.20;99.90;;;;;;5015721;28;20499;-71
2023/05/23 05:55:18;;;;;;;6.93;3.40;;;12.20;99.90;;;;;;5015337;28;20128;-71
2023/05/23 05:57:43;;;;;;;9.32;4.00;;;12.20;99.90;;;;;;5015337;28;20509;-71
2023/05/23 06:00:12;;;;;;;8.60;3.60;;;12.10;99.90;;;;;;5015131;28;20060;-71
2023/05/23 06:02:50;;;;;;;6.63;3.70;;;12.10;99.90;;;;;;5017724;28;20491;-71
2023/05/23 06:05:15;;;;;;;8.23;4.30;;;12.10;99.90;;;;;;5016775;28;20054;-71
2023/05/23 06:07:42;;;;;;;8.10;3.45;;;12.10;99.90;;;;;;5014144;28;20137;-72
2023/05/23 06:10:11;;;;;;;7.60;3.60;;;12.00;99.90;;;;;;5015775;28;20041;-71
2023/05/23 06:12:37;;;;;;;8.43;3.92;;;12.00;99.90;;;;;;5015113;28;20081;-71
2023/05/23 06:15:07;;;;;;;7.30;3.80;;;12.00;99.90;;;;;;5014663;28;20132;-64
2023/05/23 06:17:32;;;;;;;7.05;3.35;;;12.00;99.90;;;;;;5014902;28;20053;-63
2023/05/23 06:19:58;;;;;;;10.07;3.70;;;11.90;99.90;;;;;;5015765;28;20045;-63
2023/05/23 06:22:24;;;;;;;9.93;3.95;;;11.90;99.90;;;;;;5015275;28;20415;-63
2023/05/23 06:24:49;;;;;;;9.15;4.22;;;11.80;99.90;;;;;;5014847;28;20081;-64
2023/05/23 06:27:15;;;;;;;8.98;3.80;;;11.80;99.90;;;;;;5014767;28;20133;-63
2023/05/23 06:29:41;;;;;;;9.07;3.97;;;11.70;99.90;;;;;;5015146;28;20131;-63
2023/05/23 06:32:06;;;;;;;8.57;3.97;;;11.60;99.90;;;;;;5012884;28;20132;-64
2023/05/23 06:34:32;;;;;;;9.35;4.15;;;11.60;99.90;;;;;;5013937;28;20085;-63
2023/05/23 06:36:58;;;;;;;9.30;4.05;;;11.60;99.90;;;;;;5014616;28;20041;-63
2023/05/23 06:39:23;;;;;;;7.60;3.70;;;11.60;99.90;;;;;;5014880;28;20108;-64
2023/05/23 06:41:50;;;;;;;7.75;3.80;;;11.60;99.90;;;;;;5013353;28;20119;-64
2023/05/23 06:44:15;;;;;;;9.07;3.45;;;11.60;99.90;;;;;;5015044;28;20127;-64
2023/05/23 06:46:45;;;;;;;10.63;4.32;;;11.60;99.90;;;;;;5013712;28;20554;-63
2023/05/23 06:49:11;;;;;;;8.68;3.92;;;11.60;99.90;;;;;;5014476;28;20049;-64
2023/05/23 06:51:36;;;;;;;9.38;3.78;;;11.70;99.90;;;;;;5014372;28;20053;-63
2023/05/23 06:54:02;;;;;;;9.02;3.50;;;11.70;99.90;;;;;;5014623;28;20056;-64
2023/05/23 06:56:28;;;;;;;10.20;4.07;;;11.70;99.90;;;;;;5014862;28;20050;-63
2023/05/23 06:58:54;;;;;;;10.45;3.75;;;11.70;99.90;;;;;;5014275;28;20446;-64
2023/05/23 07:01:19;;;;;;;10.23;3.30;;;11.70;99.90;;;;;;5014163;28;20042;-64
2023/05/23 07:03:45;;;;;;;7.82;3.08;;;11.70;99.90;;;;;;5014229;28;20053;-63
2023/05/23 07:06:11;;;;;;;10.20;3.08;;;11.70;99.90;;;;;;5013720;28;20103;-64
2023/05/23 07:08:37;;;;;;;9.95;3.00;;;11.70;99.90;;;;;;5013548;28;20095;-65
2023/05/23 07:11:04;;;;;;;5.38;2.90;;;11.80;99.90;;;;;;5014081;28;20177;-65
2023/05/23 07:13:29;;;;;;;7.60;3.00;;;11.80;99.90;;;;;;5014411;28;20108;-70
2023/05/23 07:15:55;;;;;;;7.38;2.58;;;11.90;99.90;;;;;;5013636;28;20049;-71
2023/05/23 07:18:22;;;;;;;7.13;2.63;;;11.80;99.90;;;;;;5012720;28;20053;-71
2023/05/23 07:20:48;;;;;;;5.10;2.60;;;11.80;99.90;;;;;;5013813;28;20050;-70
2023/05/23 07:23:14;;;;;;;6.35;2.60;;;11.90;99.90;;;;;;5013846;28;20107;-70
2023/05/23 07:25:41;;;;;;;5.93;2.40;;;11.90;99.90;;;;;;5013586;28;20526;-70
2023/05/23 07:28:10;;;;;;;6.05;2.45;;;11.90;99.90;;;;;;5013820;28;20053;-69
2023/05/23 07:30:35;;;;;;;6.15;2.42;;;12.00;99.90;;;;;;5013140;28;20072;-70
2023/05/23 07:33:01;;;;;;;5.93;2.63;;;12.00;99.90;;;;;;5013434;28;20049;-69
2023/05/23 07:35:27;;;;;;;7.85;2.40;;;12.10;99.90;;;;;;5013724;28;20057;-71
2023/05/23 07:37:53;;;;;;;5.78;2.30;;;12.10;99.90;;;;;;5013710;28;20046;-69
2023/05/23 07:40:19;;;;;;;8.85;2.90;;;12.20;99.90;;;;;;5013331;28;20502;-75
2023/05/23 07:42:45;;;;;;;6.68;2.38;;;12.20;99.90;;;;;;5013615;28;20053;-70
2023/05/23 07:45:11;;;;;;;8.60;2.80;;;12.20;99.90;;;;;;5014226;28;20390;-70
2023/05/23 07:47:36;;;;;;;9.90;3.03;;;12.20;99.90;;;;;;5013578;28;20054;-71
2023/05/23 07:50:03;;;;;;;12.32;3.10;;;12.30;99.90;;;;;;5013666;28;20117;-68
2023/05/23 07:52:31;;;;;;;7.20;2.65;;;12.30;99.90;;;;;;5013542;28;20038;-77
2023/05/23 07:54:58;;;;;;;10.48;3.05;;;12.30;99.90;;;;;;4996532;28;20084;-69
2023/05/23 07:57:23;;;;;;;10.30;2.25;;;12.40;99.90;;;;;;5014080;28;20050;-69
2023/05/23 07:59:50;;;;;;;9.75;2.60;;;12.60;99.90;;;;;;5018160;28;20046;-69
2023/05/23 08:02:16;;;;;;;12.20;2.95;;;12.60;99.90;;;;;;5017306;28;20041;-69
2023/05/23 08:04:42;;;;;;;7.75;2.70;;;12.70;99.90;;;;;;5015835;28;20045;-70
2023/05/23 08:07:08;;;;;;;7.20;2.83;;;12.60;99.90;;;;;;5016059;28;20128;-71
2023/05/23 08:09:34;;;;;;;12.00;2.90;;;12.50;99.90;;;;;;5016509;28;20132;-69
2023/05/23 08:12:00;;;;;;;10.65;2.67;;;12.50;99.90;;;;;;5016315;28;20046;-69
2023/05/23 08:14:26;;;;;;;10.15;2.78;;;12.50;99.90;;;;;;5016941;28;20068;-70
2023/05/23 08:16:52;;;;;;;10.63;2.70;;;12.50;99.90;;;;;;5016963;28;20042;-70
2023/05/23 08:19:18;;;;;;;13.00;2.80;;;12.50;99.90;;;;;;5016203;28;20053;-69
2023/05/23 08:21:44;;;;;;;13.13;3.30;;;12.50;99.90;;;;;;5016984;28;20042;-70
2023/05/23 08:24:11;;;;;;;10.35;2.55;;;12.50;99.90;;;;;;5016102;28;20054;-70
2023/05/23 08:26:40;;;;;;;8.50;2.25;;;12.50;99.90;;;;;;5017244;28;20542;-70
2023/05/23 08:29:08;;;;;;;8.05;2.40;;;12.50;99.90;;;;;;5016994;28;20053;-69
2023/05/23 08:31:34;;;;;;;9.95;2.55;;;12.60;99.90;;;;;;5015534;28;20058;-69
2023/05/23 08:34:01;;;;;;;9.02;2.58;;;12.60;99.90;;;;;;5016481;28;20486;-70
2023/05/23 08:36:27;;;;;;;11.13;2.40;;;12.50;99.90;;;;;;5016997;28;20053;-69
2023/05/23 08:38:53;;;;;;;7.15;2.50;;;12.60;99.90;;;;;;5016797;28;20046;-70
2023/05/23 08:41:20;;;;;;;6.80;2.25;;;12.70;99.90;;;;;;5016724;28;20038;-70
2023/05/23 08:43:46;;;;;;;6.72;2.40;;;12.80;99.90;;;;;;5016631;28;20475;-71
2023/05/23 08:46:13;;;;;;;10.55;2.80;;;13.00;99.90;;;;;;5016675;28;20125;-72
2023/05/23 08:48:41;;;;;;;6.95;2.42;;;13.20;99.90;;;;;;5016616;28;20077;-74
2023/05/23 08:51:10;;;;;;;8.93;2.72;;;13.30;99.90;;;;;;5016489;28;20499;-72
2023/05/23 08:53:39;;;;;;;10.05;3.15;;;13.40;99.90;;;;;;5016378;28;20054;-73
2023/05/23 08:56:07;;;;;;;6.75;2.22;;;13.40;99.90;;;;;;5016453;28;20042;-70
2023/05/23 08:58:34;;;;;;;6.38;2.78;;;13.40;99.90;;;;;;5015488;28;20395;-70
2023/05/23 09:01:00;;;;;;;6.93;2.35;;;13.40;99.90;;;;;;5016375;28;20128;-69
2023/05/23 09:03:26;;;;;;;9.35;3.03;;;13.70;99.90;;;;;;5016251;28;20134;-70
2023/05/23 09:05:53;;;;;;;9.40;2.42;;;14.00;99.90;;;;;;5015684;28;20491;-69
2023/05/23 09:08:19;;;;;;;9.43;2.88;;;14.10;99.90;;;;;;5016157;28;20115;-70
2023/05/23 09:10:46;;;;;;;7.03;2.42;;;14.30;99.90;;;;;;5016135;28;20502;-70
2023/05/23 09:13:11;;;;;;;7.53;2.50;;;14.50;99.90;;;;;;5016169;28;20046;-70
2023/05/23 09:15:37;;;;;;;9.27;2.83;;;14.60;99.90;;;;;;5016186;28;20048;-70
2023/05/23 09:18:03;;;;;;;8.18;3.03;;;14.60;99.90;;;;;;5016047;28;20069;-70
2023/05/23 09:20:30;;;;;;;9.02;2.47;;;14.60;99.90;;;;;;5014986;28;20053;-70
2023/05/23 09:22:56;;;;;;;8.48;2.85;;;14.70;99.90;;;;;;5015821;28;20054;-69
2023/05/23 09:25:22;;;;;;;7.88;2.28;;;14.80;99.90;;;;;;5016239;28;20054;-70
2023/05/23 09:27:48;;;;;;;11.32;2.85;;;14.90;99.90;;;;;;5015906;28;20092;-69
2023/05/23 09:30:14;;;;;;;10.60;2.65;;;14.80;99.90;;;;;;5015718;28;20077;-70
2023/05/23 09:32:40;;;;;;;5.35;2.28;;;14.70;99.90;;;;;;5015909;28;20045;-70
2023/05/23 09:35:11;;;;;;;9.73;2.47;;;14.70;99.90;;;;;;5015656;28;20053;-70
2023/05/23 09:37:39;;;;;;;9.23;2.70;;;14.80;99.90;;;;;;5016459;28;20108;-70
2023/05/23 09:40:10;;;;;;;5.45;2.40;;;14.90;99.90;;;;;;5015714;28;20046;-70
2023/05/23 09:42:42;;;;;;;6.70;2.20;;;15.10;99.90;;;;;;5015991;28;20046;-69
2023/05/23 09:45:09;;;;;;;7.28;2.30;;;15.10;99.90;;;;;;5015592;28;20447;-70
2023/05/23 09:47:35;;;;;;;7.53;2.10;;;15.00;99.90;;;;;;5015761;28;20054;-69
2023/05/23 09:50:01;;;;;;;8.48;2.83;;;14.80;99.90;;;;;;5015338;28;20038;-71
2023/05/23 09:52:26;;;;;;;7.40;2.40;;;14.60;99.90;;;;;;5014027;28;20613;-73
2023/05/23 09:54:53;;;;;;;8.50;2.83;;;14.40;99.90;;;;;;5015468;28;20096;-69
2023/05/23 09:57:22;;;;;;;9.60;2.80;;;14.20;99.90;;;;;;5015165;28;20046;-69
2023/05/23 09:59:53;;;;;;;8.60;2.30;;;14.20;99.90;;;;;;5015222;28;20168;-69
2023/05/23 10:02:46;;;;;;;12.50;2.45;;;14.30;99.90;;;;;;5014789;28;20050;-68
2023/05/23 10:05:25;;;;;;;7.35;2.40;;;14.50;99.90;;;;;;5015252;28;20049;-69
2023/05/23 10:07:51;;;;;;;7.95;2.30;;;14.70;99.90;;;;;;5015585;28;20046;-68
2023/05/23 10:10:18;;;;;;;5.93;2.15;;;14.90;99.90;;;;;;5014133;28;20104;-68
2023/05/23 10:12:49;;;;;;;7.60;2.38;;;14.90;99.90;;;;;;5015027;28;20046;-69
2023/05/23 10:15:17;;;;;;;8.32;2.60;;;15.00;99.90;;;;;;5015102;28;20045;-68
2023/05/23 10:18:01;;;;;;;7.00;2.70;;;15.00;99.90;;;;;;5014961;28;20140;-69
2023/05/23 10:20:31;;;;;;;7.63;1.92;;;15.30;99.90;;;;;;5014596;28;20046;-68
2023/05/23 10:23:01;;;;;;;10.10;2.80;;;15.50;99.90;;;;;;5015368;28;20453;-69
2023/05/23 10:25:28;;;;;;;6.80;2.67;;;15.70;99.90;;;;;;5015996;28;20053;-68
2023/05/23 10:27:58;;;;;;;7.78;2.28;;;15.70;99.90;;;;;;5016178;28;20081;-69
2023/05/23 10:30:25;;;;;;;7.70;2.25;;;15.60;99.90;;;;;;5015155;28;20053;-70
2023/05/23 10:32:52;;;;;;;7.10;2.65;;;15.60;99.90;;;;;;5014702;28;20128;-70
2023/05/23 10:35:41;;;;;;;7.53;2.33;;;15.70;99.90;;;;;;5015160;28;20046;-70
2023/05/23 10:38:20;;;;;;;8.00;2.40;;;16.00;99.90;;;;;;5014609;28;20137;-71
2023/05/23 10:41:06;;;;;;;9.73;2.55;;;16.20;99.90;;;;;;5014562;28;20518;-70
2023/05/23 10:43:56;;;;;;;8.93;2.65;;;16.50;99.90;;;;;;5014559;28;20089;-70
2023/05/23 10:46:21;;;;;;;9.77;2.30;;;16.60;99.90;;;;;;5015339;28;20041;-70
2023/05/23 10:48:52;;;;;;;5.53;2.15;;;16.30;99.90;;;;;;5014963;28;20490;-71
2023/05/23 10:51:19;;;;;;;10.63;2.45;;;16.10;99.90;;;;;;5014950;28;20046;-70
2023/05/23 10:53:46;;;;;;;8.73;2.20;;;16.20;99.90;;;;;;5014507;28;20085;-70
2023/05/23 10:56:22;;;;;;;6.10;2.60;;;16.30;99.90;;;;;;5014562;28;20394;-70
2023/05/23 10:58:56;;;;;;;7.13;2.30;;;16.40;99.90;;;;;;5014164;28;20049;-69
2023/05/23 11:01:22;;;;;;;7.13;2.08;;;16.40;99.90;;;;;;5014849;28;20056;-68
2023/05/23 11:03:50;;;;;;;7.03;2.00;;;16.40;99.90;;;;;;5014124;28;20486;-69
2023/05/23 11:06:37;;;;;;;7.35;2.25;;;16.40;99.90;;;;;;5013192;28;20054;-68
2023/05/23 11:09:04;;;;;;;6.47;2.05;;;16.30;99.90;;;;;;5013476;28;20389;-68
2023/05/23 11:12:01;;;;;;;7.43;2.13;;;16.10;99.90;;;;;;5014038;28;20095;-68
2023/05/23 11:14:30;;;;;;;5.32;1.83;;;16.00;99.90;;;;;;5012837;28;20453;-69
2023/05/23 11:16:56;;;;;;;5.57;2.20;;;16.10;99.90;;;;;;5014013;28;20112;-69
2023/05/23 11:19:27;;;;;;;7.18;2.50;;;16.30;99.90;;;;;;5012814;28;20042;-68
2023/05/23 11:21:55;;;;;;;5.78;1.90;;;16.40;99.90;;;;;;5013913;28;20042;-70
2023/05/23 11:24:22;;;;;;;6.75;1.80;;;16.40;99.90;;;;;;5013629;28;20490;-70
2023/05/23 11:26:59;;;;;;;5.93;1.75;;;16.30;99.90;;;;;;5014645;28;20081;-69
2023/05/23 11:29:28;;;;;;;7.35;1.90;;;16.40;99.90;;;;;;5013951;28;20054;-69
2023/05/23 11:31:57;;;;;;;7.25;2.15;;;16.40;99.90;;;;;;5013058;28;20056;-69
2023/05/23 11:34:26;;;;;;;5.95;1.55;;;16.50;99.90;;;;;;5013858;28;20080;-69
2023/05/23 11:36:54;;;;;;;6.07;2.03;;;16.40;99.90;;;;;;5012501;28;20037;-68
2023/05/23 11:39:20;;;;;;;7.45;2.03;;;16.30;99.90;;;;;;5013773;28;20054;-69
2023/05/23 11:41:59;;;;;;;6.55;2.35;;;16.10;99.90;;;;;;5013658;28;20050;-69
2023/05/23 11:44:26;;;;;;;6.10;2.05;;;15.90;99.90;;;;;;5014668;28;20368;-69
2023/05/23 11:47:05;;;;;;;5.15;1.80;;;15.80;99.90;;;;;;5012477;28;20052;-69
2023/05/23 11:49:34;;;;;;;4.20;1.73;;;15.80;99.90;;;;;;5014312;28;20058;-69
2023/05/23 11:52:01;;;;;;;5.05;1.60;;;15.90;99.90;;;;;;5013921;28;20433;-68
2023/05/23 11:54:27;;;;;;;7.88;2.10;;;15.90;99.90;;;;;;5012877;28;20081;-69
2023/05/23 11:56:54;;;;;;;5.47;1.98;;;16.00;99.90;;;;;;5013643;28;20096;-69
2023/05/23 11:59:27;;;;;;;8.85;2.35;;;16.20;99.90;;;;;;5013390;28;20045;-71
2023/05/23 12:01:53;;;;;;;4.85;1.90;;;16.20;99.90;;;;;;5013609;28;20481;-68
2023/05/23 12:04:19;;;;;;;5.20;1.50;;;16.20;99.90;;;;;;5013762;28;20056;-71
2023/05/23 12:06:49;;;;;;;7.22;1.83;;;16.40;99.90;;;;;;5014194;28;20052;-69
2023/05/23 12:09:15;;;;;;;6.88;2.10;;;16.30;99.90;;;;;;5013500;28;20093;-70
2023/05/23 12:11:42;;;;;;;6.82;1.90;;;16.40;99.90;;;;;;5014226;28;20053;-69
2023/05/23 12:14:13;;;;;;;5.55;1.80;;;16.50;99.90;;;;;;5013456;28;20045;-71
2023/05/23 12:16:38;;;;;;;5.07;1.92;;;16.90;99.90;;;;;;5012768;28;20050;-70
2023/05/23 12:19:05;;;;;;;7.10;2.10;;;17.20;99.90;;;;;;5013351;28;20042;-71
2023/05/23 12:21:45;;;;;;;10.98;2.33;;;17.40;99.90;;;;;;5012485;28;20545;-70
2023/05/23 12:24:19;;;;;;;7.72;2.28;;;17.30;99.90;;;;;;5012988;28;20407;-70
2023/05/23 12:26:49;;;;;;;6.28;2.15;;;17.10;99.90;;;;;;5013302;28;20081;-71
2023/05/23 12:29:15;;;;;;;7.18;1.83;;;17.20;99.90;;;;;;5013289;28;20061;-70
2023/05/23 12:31:41;;;;;;;5.50;1.77;;;17.50;99.90;;;;;;5013016;28;20053;-70
2023/05/23 12:34:07;;;;;;;7.80;2.00;;;17.60;99.90;;;;;;5013175;28;20065;-72
2023/05/23 12:36:33;;;;;;;4.25;1.67;;;17.60;99.90;;;;;;5013179;28;20225;-72
2023/05/23 12:39:04;;;;;;;6.00;2.05;;;17.40;99.90;;;;;;5012296;28;20050;-72
2023/05/23 12:41:32;;;;;;;5.28;1.80;;;17.20;99.90;;;;;;5013073;28;20133;-71
2023/05/23 12:43:58;;;;;;;6.85;2.13;;;17.20;99.90;;;;;;5014641;28;20455;-71
2023/05/23 12:46:25;;;;;;;5.75;1.85;;;17.60;99.90;;;;;;5017232;28;20052;-72